createdAt,value
2023-01-23T00:01:42.703Z,101785.69
2023-01-23T00:04:15.721Z,101788.41
2023-01-23T00:06:44.947Z,101783.28
2023-01-23T00:09:13.634Z,101788.25
2023-01-23T00:11:43.979Z,101785.53
2023-01-23T00:14:12.601Z,101793.03
2023-01-23T00:16:40.972Z,101789.72
2023-01-23T00:19:11.230Z,101790.81
2023-01-23T00:21:39.764Z,101782.06
2023-01-23T00:24:12.040Z,101781.00
2023-01-23T00:26:40.376Z,101787.91
2023-01-23T00:29:10.951Z,101783.69
2023-01-23T00:31:40.851Z,101789.72
2023-01-23T00:34:14.818Z,101784.03
2023-01-23T00:36:45.702Z,101792.63
2023-01-23T00:39:19.123Z,101787.50
2023-01-23T00:41:48.887Z,101791.56
2023-01-23T00:44:19.433Z,101793.38
2023-01-23T00:46:48.422Z,101794.84
2023-01-23T00:49:17.794Z,101795.75
2023-01-23T00:51:46.644Z,101797.41
2023-01-23T00:54:15.177Z,101789.72
2023-01-23T00:56:44.309Z,101784.63
2023-01-23T00:59:12.740Z,101780.41
2023-01-23T01:01:43.172Z,101787.91
2023-01-23T01:04:12.170Z,101801.50
2023-01-23T01:06:40.793Z,101796.50
2023-01-23T01:09:09.634Z,101793.03
2023-01-23T01:11:40.168Z,101802.22
2023-01-23T01:14:09.592Z,101799.84
2023-01-23T01:16:38.228Z,101804.78
2023-01-23T01:19:08.826Z,101810.66
2023-01-23T01:21:38.946Z,101815.03
2023-01-23T01:24:08.197Z,101815.94
2023-01-23T01:26:37.307Z,101821.97
2023-01-23T01:29:05.970Z,101825.56
2023-01-23T01:31:34.793Z,101816.97
2023-01-23T01:34:04.135Z,101817.75
2023-01-23T01:36:33.947Z,101829.03
2023-01-23T01:39:02.598Z,101815.31
2023-01-23T01:41:31.086Z,101829.03
2023-01-23T01:44:00.203Z,101824.06
2023-01-23T01:46:30.951Z,101825.91
2023-01-23T01:49:09.479Z,101834.59
2023-01-23T01:51:45.239Z,101842.28
2023-01-23T01:54:23.108Z,101843.81
2023-01-23T01:56:56.124Z,101833.56
2023-01-23T01:59:30.528Z,101832.81
2023-01-23T02:02:05.520Z,101820.03
2023-01-23T02:04:35.204Z,101820.78
2023-01-23T02:07:12.455Z,101830.69
2023-01-23T02:09:42.445Z,101824.19
2023-01-23T02:12:11.341Z,101823.00
2023-01-23T02:14:42.413Z,101825.56
2023-01-23T02:17:12.243Z,101822.53
2023-01-23T02:19:52.866Z,101822.19
2023-01-23T02:22:47.109Z,101832.13
2023-01-23T02:25:24.156Z,101840.56
2023-01-23T02:27:54.690Z,101826.69
2023-01-23T02:30:24.811Z,101835.09
2023-01-23T02:32:55.774Z,101843.56
2023-01-23T02:35:28.297Z,101834.19
2023-01-23T02:38:06.660Z,101842.47
2023-01-23T02:40:38.227Z,101850.16
2023-01-23T02:43:19.124Z,101846.09
2023-01-23T02:45:55.186Z,101845.19
2023-01-23T02:48:25.420Z,101843.38
2023-01-23T02:50:54.174Z,101846.84
2023-01-23T02:53:23.030Z,101846.97
2023-01-23T02:55:53.966Z,101851.34
2023-01-23T02:58:43.352Z,101848.97
2023-01-23T03:01:12.434Z,101839.63
2023-01-23T03:03:43.649Z,101833.34
2023-01-23T03:06:12.745Z,101839.81
2023-01-23T03:08:47.541Z,101837.59
2023-01-23T03:11:18.554Z,101830.38
2023-01-23T03:13:48.960Z,101833.13
2023-01-23T03:16:17.510Z,101834.00
2023-01-23T03:18:54.175Z,101836.72
2023-01-23T03:21:24.514Z,101835.81
2023-01-23T03:23:54.277Z,101836.72
2023-01-23T03:26:22.975Z,101840.91
2023-01-23T03:29:11.191Z,101844.38
2023-01-23T03:31:40.028Z,101840.19
2023-01-23T03:34:08.689Z,101837.63
2023-01-23T03:36:37.539Z,101836.13
2023-01-23T03:39:25.726Z,101838.69
2023-01-23T03:41:55.228Z,101838.53
2023-01-23T03:44:27.128Z,101835.22
2023-01-23T03:46:55.736Z,101842.16
2023-01-23T03:49:25.292Z,101835.53
2023-01-23T03:52:00.323Z,101837.34
2023-01-23T03:54:30.939Z,101840.81
2023-01-23T03:56:59.858Z,101844.28
2023-01-23T04:00:03.228Z,101850.31
2023-01-23T04:02:42.550Z,101844.28
2023-01-23T04:05:14.949Z,101830.56
2023-01-23T04:07:43.811Z,101835.84
2023-01-23T04:10:13.348Z,101849.56
2023-01-23T04:12:44.608Z,101851.22
2023-01-23T04:15:15.477Z,101857.25
2023-01-23T04:17:44.504Z,101862.03
2023-01-23T04:20:15.567Z,101863.53
2023-01-23T04:22:45.551Z,101864.13
2023-01-23T04:25:14.246Z,101875.72
2023-01-23T04:27:42.836Z,101870.25
2023-01-23T04:30:15.011Z,101856.56
2023-01-23T04:32:43.925Z,101860.94
2023-01-23T04:35:12.400Z,101865.47
2023-01-23T04:37:43.267Z,101862.13
2023-01-23T04:40:13.449Z,101864.13
2023-01-23T04:42:53.745Z,101866.09
2023-01-23T04:45:34.923Z,101865.19
2023-01-23T04:48:22.424Z,101867.59
2023-01-23T04:50:51.759Z,101859.16
2023-01-23T04:53:20.950Z,101865.31
2023-01-23T04:55:57.382Z,101865.66
2023-01-23T04:58:26.592Z,101866.69
2023-01-23T05:01:06.307Z,101862.34
2023-01-23T05:03:37.397Z,101858.16
2023-01-23T05:06:07.107Z,101857.25
2023-01-23T05:08:36.548Z,101859.94
2023-01-23T05:11:15.619Z,101857.25
2023-01-23T05:13:44.148Z,101857.97
2023-01-23T05:16:17.631Z,101861.59
2023-01-23T05:19:04.572Z,101854.69
2023-01-23T05:21:34.114Z,101855.41
2023-01-23T05:24:03.421Z,101857.97
2023-01-23T05:26:32.068Z,101867.47
2023-01-23T05:29:00.863Z,101867.47
2023-01-23T05:31:32.046Z,101862.34
2023-01-23T05:34:21.097Z,101870.78
2023-01-23T05:36:49.627Z,101874.09
2023-01-23T05:39:19.123Z,101872.25
2023-01-23T05:41:47.836Z,101884.03
2023-01-23T05:44:38.866Z,101887.31
2023-01-23T05:47:15.932Z,101882.19
2023-01-23T05:49:45.890Z,101893.34
2023-01-23T05:52:14.975Z,101882.94
2023-01-23T05:54:45.173Z,101895.75
2023-01-23T05:57:14.931Z,101893.03
2023-01-23T06:00:15.630Z,101892.84
2023-01-23T06:02:47.460Z,101896.94
2023-01-23T06:05:34.709Z,101894.22
2023-01-23T06:08:08.231Z,101902.22
2023-01-23T06:10:38.419Z,101903.88
2023-01-23T06:13:07.830Z,101910.94
2023-01-23T06:15:38.462Z,101901.44
2023-01-23T06:18:13.598Z,101904.00
2023-01-23T06:20:42.299Z,101904.78
2023-01-23T06:23:11.447Z,101905.66
2023-01-23T06:25:40.220Z,101902.34
2023-01-23T06:28:12.320Z,101905.97
2023-01-23T06:30:40.752Z,101913.81
2023-01-23T06:33:21.968Z,101913.81
2023-01-23T06:35:50.599Z,101923.28
2023-01-23T06:38:19.411Z,101922.56
2023-01-23T06:40:50.951Z,101929.66
2023-01-23T06:43:32.753Z,101927.09
2023-01-23T06:46:02.911Z,101931.31
2023-01-23T06:48:33.596Z,101943.94
2023-01-23T06:51:02.550Z,101942.47
2023-01-23T06:53:32.203Z,101952.69
2023-01-23T06:56:02.308Z,101954.50
2023-01-23T06:58:34.252Z,101946.97
2023-01-23T07:01:11.075Z,101951.50
2023-01-23T07:03:59.988Z,101954.50
2023-01-23T07:06:28.951Z,101951.03
2023-01-23T07:08:57.384Z,101956.00
2023-01-23T07:11:26.965Z,101954.19
2023-01-23T07:13:58.424Z,101969.53
2023-01-23T07:16:29.507Z,101972.09
2023-01-23T07:19:00.472Z,101971.19
2023-01-23T07:21:32.716Z,101976.16
2023-01-23T07:24:01.217Z,101979.03
2023-01-23T07:26:29.639Z,101981.59
2023-01-23T07:28:58.090Z,101990.00
2023-01-23T07:31:26.881Z,101986.41
2023-01-23T07:33:55.358Z,101990.63
2023-01-23T07:36:25.867Z,101995.13
2023-01-23T07:38:54.273Z,101992.56
2023-01-23T07:41:23.122Z,101994.41
2023-01-23T07:43:51.595Z,102001.91
2023-01-23T07:46:20.577Z,101999.34
2023-01-23T07:48:49.027Z,102004.63
2023-01-23T07:51:17.560Z,102004.63
2023-01-23T07:53:47.571Z,102002.06
2023-01-23T07:56:16.149Z,102007.19
2023-01-23T07:58:44.582Z,102004.81
2023-01-23T08:01:13.347Z,102015.19
2023-01-23T08:03:41.845Z,102015.50
2023-01-23T08:06:10.669Z,102017.50
2023-01-23T08:08:39.252Z,102012.38
2023-01-23T08:11:12.136Z,102018.56
2023-01-23T08:13:40.868Z,102015.06
2023-01-23T08:16:12.650Z,102021.09
2023-01-23T08:18:42.788Z,102023.84
2023-01-23T08:21:11.901Z,102021.44
2023-01-23T08:23:41.477Z,102016.63
2023-01-23T08:26:15.934Z,102017.53
2023-01-23T08:28:44.863Z,102019.19
2023-01-23T08:31:14.544Z,102013.16
2023-01-23T08:33:43.372Z,102010.59
2023-01-23T08:36:14.588Z,102003.66
2023-01-23T08:38:43.539Z,102013.31
2023-01-23T08:41:13.502Z,102009.84
2023-01-23T08:43:42.577Z,102016.06
2023-01-23T08:46:12.411Z,102012.72
2023-01-23T08:48:41.197Z,102023.88
2023-01-23T08:51:12.533Z,102027.34
2023-01-23T08:53:41.641Z,102024.78
2023-01-23T08:56:17.054Z,102037.00
2023-01-23T08:58:46.063Z,102031.16
2023-01-23T09:01:14.919Z,102037.19
2023-01-23T09:03:46.087Z,102042.31
2023-01-23T09:06:15.977Z,102028.72
2023-01-23T09:08:44.811Z,102030.53
2023-01-23T09:11:15.624Z,102029.63
2023-01-23T09:13:44.084Z,102035.66
2023-01-23T09:16:12.517Z,102035.66
2023-01-23T09:18:41.295Z,102034.91
2023-01-23T09:21:11.933Z,102036.00
2023-01-23T09:23:40.640Z,102032.69
2023-01-23T09:26:12.044Z,102045.06
2023-01-23T09:28:43.519Z,102027.31
2023-01-23T09:31:14.795Z,102022.31
2023-01-23T09:33:44.429Z,102029.25
2023-01-23T09:36:13.655Z,102043.13
2023-01-23T09:38:42.206Z,102052.63
2023-01-23T09:41:18.165Z,102041.63
2023-01-23T09:43:55.076Z,102040.88
2023-01-23T09:46:30.157Z,102050.38
2023-01-23T09:49:04.718Z,102059.88
2023-01-23T09:51:49.342Z,102061.72
2023-01-23T09:54:34.256Z,102061.72
2023-01-23T09:57:07.765Z,102059.88
2023-01-23T09:59:53.565Z,102058.25
2023-01-23T10:02:27.236Z,102059.16
2023-01-23T10:04:58.164Z,102055.81
2023-01-23T10:07:57.347Z,102062.75
2023-01-23T10:10:46.769Z,102064.28
2023-01-23T10:13:19.114Z,102063.50
2023-01-23T10:16:20.192Z,102068.03
2023-01-23T10:18:56.132Z,102063.81
2023-01-23T10:21:35.229Z,102069.13
2023-01-23T10:24:16.211Z,102074.38
2023-01-23T10:26:48.000Z,102059.91
2023-01-23T10:29:23.831Z,102056.44
2023-01-23T10:31:59.247Z,102071.06
2023-01-23T10:34:37.920Z,102060.81
2023-01-23T10:37:19.723Z,102073.50
2023-01-23T10:39:54.123Z,102070.34
2023-01-23T10:42:25.102Z,102071.97
2023-01-23T10:44:53.931Z,102070.34
2023-01-23T10:47:33.232Z,102057.69
2023-01-23T10:50:03.253Z,102053.47
2023-01-23T10:52:36.612Z,102064.75
2023-01-23T10:55:07.455Z,102058.44
2023-01-23T10:57:48.482Z,102057.84
2023-01-23T11:00:28.123Z,102050.91
2023-01-23T11:02:58.407Z,102064.63
2023-01-23T11:05:51.928Z,102055.59
2023-01-23T11:08:28.706Z,102047.31
2023-01-23T11:11:23.020Z,102051.69
2023-01-23T11:14:08.982Z,102051.84
2023-01-23T11:16:37.678Z,102046.13
2023-01-23T11:19:20.551Z,102049.91
2023-01-23T11:21:56.498Z,102030.47
2023-01-23T11:24:40.432Z,102039.81
2023-01-23T11:27:26.725Z,102044.03
2023-01-23T11:30:40.673Z,102035.28
2023-01-23T11:33:23.226Z,102031.97
2023-01-23T11:36:04.266Z,102022.63
2023-01-23T11:38:52.255Z,102026.25
2023-01-23T11:41:28.697Z,102028.94
2023-01-23T11:43:57.137Z,102028.94
2023-01-23T11:46:47.561Z,102026.72
2023-01-23T11:49:32.893Z,102024.31
2023-01-23T11:52:23.983Z,102027.75
2023-01-23T11:55:13.499Z,102043.16
2023-01-23T11:57:58.822Z,102023.41
2023-01-23T12:00:36.382Z,102027.75
2023-01-23T12:04:20.857Z,102029.59
2023-01-23T12:07:15.331Z,102025.19
2023-01-23T12:10:00.643Z,102034.88
2023-01-23T12:12:52.742Z,102025.69
2023-01-23T12:15:33.584Z,102027.47
2023-01-23T12:18:17.301Z,102026.59
2023-01-23T12:20:54.418Z,102021.31
2023-01-23T12:23:39.088Z,102021.47
2023-01-23T12:26:14.825Z,102021.47
2023-01-23T12:29:31.892Z,102022.50
2023-01-23T12:32:27.395Z,102023.25
2023-01-23T12:35:17.783Z,102020.69
2023-01-23T12:38:10.035Z,102024.03
2023-01-23T12:40:43.341Z,102024.16
2023-01-23T12:43:19.175Z,102025.81
2023-01-23T12:45:52.754Z,102026.91
2023-01-23T12:48:28.486Z,102020.88
2023-01-23T12:51:03.031Z,102028.56
2023-01-23T12:53:37.351Z,102027.66
2023-01-23T12:56:12.225Z,102026.00
2023-01-23T12:58:46.827Z,102029.63
2023-01-23T13:01:39.337Z,102027.97
2023-01-23T13:04:21.866Z,102031.44
2023-01-23T13:07:14.926Z,102031.44
2023-01-23T13:10:08.701Z,102025.41
2023-01-23T13:12:39.264Z,102026.91
2023-01-23T13:15:39.918Z,102030.22
2023-01-23T13:18:24.593Z,102030.03
2023-01-23T13:21:16.738Z,102036.06
2023-01-23T13:23:46.007Z,102036.84
2023-01-23T13:26:32.426Z,102031.84
2023-01-23T13:29:26.851Z,102033.69
2023-01-23T13:32:22.757Z,102037.16
2023-01-23T13:34:51.237Z,102029.28
2023-01-23T13:37:51.352Z,102037.16
2023-01-23T13:40:25.314Z,102040.78
2023-01-23T13:42:53.922Z,102039.25
2023-01-23T13:45:31.701Z,102028.47
2023-01-23T14:21:27.776Z,102046.97
2023-01-23T14:24:01.729Z,102043.47
2023-01-23T14:26:33.033Z,102048.97
2023-01-23T14:29:04.113Z,102048.06
2023-01-23T14:31:35.581Z,102046.41
2023-01-23T14:34:10.704Z,102050.44
2023-01-23T14:36:46.294Z,102052.09
2023-01-23T14:39:20.019Z,102063.44
2023-01-23T14:41:51.022Z,102068.59
2023-01-23T14:44:23.830Z,102063.44
2023-01-23T14:46:55.506Z,102066.19
2023-01-23T14:49:31.851Z,102072.22
2023-01-23T14:52:02.039Z,102070.41
2023-01-23T14:54:33.271Z,102070.41
2023-01-23T14:57:05.604Z,102071.44
2023-01-23T14:59:36.898Z,102078.56
2023-01-23T15:02:27.526Z,102074.34
2023-01-23T15:05:25.110Z,102062.25
2023-01-23T15:07:56.898Z,102064.81
2023-01-23T15:10:29.195Z,102074.34
2023-01-23T15:13:00.271Z,102060.78
2023-01-23T15:15:29.750Z,102059.25
2023-01-23T15:18:01.538Z,102054.13
2023-01-23T15:20:38.488Z,102055.94
2023-01-23T15:23:31.128Z,102061.06
2023-01-23T15:26:27.222Z,102068.47
2023-01-23T15:28:57.537Z,102071.59
2023-01-23T15:31:30.575Z,102079.47
2023-01-23T15:34:20.093Z,102070.69
2023-01-23T15:36:54.290Z,102068.00
2023-01-23T15:39:26.426Z,102067.09
2023-01-23T15:41:58.740Z,102063.44
2023-01-23T15:44:30.232Z,102069.50
2023-01-23T15:47:01.305Z,102062.53
2023-01-23T15:49:30.128Z,102067.09
2023-01-23T15:52:04.471Z,102068.88
2023-01-23T15:54:36.432Z,102086.06
2023-01-23T15:57:08.314Z,102078.38
2023-01-23T15:59:38.078Z,102073.25
2023-01-23T16:02:12.904Z,102067.09
2023-01-23T16:04:47.584Z,102072.22
2023-01-23T16:07:28.595Z,102069.66
2023-01-23T16:09:57.844Z,102064.16
2023-01-23T16:12:30.661Z,102065.81
2023-01-23T16:14:59.428Z,102059.78
2023-01-23T16:17:27.997Z,102061.59
2023-01-23T16:19:56.491Z,102046.97
2023-01-23T16:22:29.510Z,102047.69
2023-01-23T16:24:59.471Z,102043.34
2023-01-23T16:27:28.263Z,102034.28
2023-01-23T16:29:57.502Z,102041.19
2023-01-23T16:32:26.232Z,102030.22
2023-01-23T16:34:55.026Z,102023.25
2023-01-23T16:37:24.968Z,102023.25
2023-01-23T16:39:53.489Z,102019.66
2023-01-23T16:42:25.100Z,102020.41
2023-01-23T16:44:53.583Z,102028.25
2023-01-23T16:47:22.168Z,102032.31
2023-01-23T16:49:53.068Z,102034.72
2023-01-23T16:52:27.065Z,102042.56
2023-01-23T16:54:56.753Z,102053.41
2023-01-23T16:57:25.818Z,102050.69
2023-01-23T16:59:56.574Z,102053.25
2023-01-23T17:02:30.853Z,102055.22
2023-01-23T17:04:59.874Z,102051.00
2023-01-23T17:07:29.753Z,102054.47
2023-01-23T17:09:58.283Z,102054.31
2023-01-23T17:12:30.074Z,102050.84
2023-01-23T17:14:59.092Z,102045.56
2023-01-23T17:17:32.731Z,102055.97
2023-01-23T17:20:02.303Z,102055.97
2023-01-23T17:22:38.281Z,102057.03
2023-01-23T17:25:14.397Z,102058.84
2023-01-23T17:27:45.822Z,102059.03
2023-01-23T17:30:18.311Z,102054.81
2023-01-23T17:32:50.850Z,102054.94
2023-01-23T17:35:24.285Z,102052.53
2023-01-23T17:37:55.140Z,102059.31
2023-01-23T17:40:23.599Z,102049.22
2023-01-23T17:42:53.648Z,102045.75
2023-01-23T17:45:25.568Z,102043.19
2023-01-23T17:47:56.226Z,102054.34
2023-01-23T17:50:27.313Z,102062.22
2023-01-23T17:52:57.291Z,102057.09
2023-01-23T17:55:28.864Z,102044.41
2023-01-23T17:57:57.459Z,102046.22
2023-01-23T18:00:27.162Z,102040.19
2023-01-23T18:03:00.443Z,102042.94
2023-01-23T18:05:29.539Z,102041.44
2023-01-23T18:07:59.437Z,102043.25
2023-01-23T18:10:29.891Z,102034.81
2023-01-23T18:13:13.692Z,102051.72
2023-01-23T18:15:56.147Z,102049.53
2023-01-23T18:18:31.857Z,102056.16
2023-01-23T18:21:04.335Z,102056.00
2023-01-23T18:23:37.324Z,102045.59
2023-01-23T18:26:25.744Z,102050.72
2023-01-23T18:29:04.097Z,102054.03
2023-01-23T18:31:40.743Z,102058.84
2023-01-23T18:34:22.635Z,102050.41
2023-01-23T18:37:04.368Z,102044.22
2023-01-23T18:39:54.053Z,102051.91
2023-01-23T18:42:27.418Z,102057.94
2023-01-23T18:45:00.792Z,102059.59
2023-01-23T18:47:29.987Z,102057.03
2023-01-23T18:49:59.244Z,102059.75
2023-01-23T18:52:42.681Z,102056.59
2023-01-23T18:55:25.326Z,102059.16
2023-01-23T18:58:08.945Z,102064.44
2023-01-23T19:00:46.550Z,102061.88
2023-01-23T19:03:18.102Z,102061.13
2023-01-23T19:05:47.690Z,102063.69
2023-01-23T19:08:32.402Z,102065.66
2023-01-23T19:11:07.631Z,102069.00
2023-01-23T19:13:46.167Z,102073.22
2023-01-23T19:16:24.175Z,102073.34
2023-01-23T19:19:14.537Z,102075.16
2023-01-23T19:21:46.359Z,102076.81
2023-01-23T19:24:19.632Z,102076.06
2023-01-23T19:26:51.255Z,102086.16
2023-01-23T19:29:22.494Z,102086.94
2023-01-23T19:32:04.614Z,102085.84
2023-01-23T19:34:34.259Z,102084.03
2023-01-23T19:37:02.886Z,102084.78
2023-01-23T19:39:31.319Z,102091.00
2023-01-23T19:42:01.351Z,102088.41
2023-01-23T19:44:30.376Z,102095.38
2023-01-23T19:46:59.120Z,102092.81
2023-01-23T19:49:27.593Z,102104.09
2023-01-23T19:51:56.203Z,102099.75
2023-01-23T19:54:24.755Z,102099.34
2023-01-23T19:56:53.662Z,102101.16
2023-01-23T19:59:25.097Z,102107.75
2023-01-23T20:01:54.630Z,102111.78
2023-01-23T20:04:24.831Z,102115.25
2023-01-23T20:06:53.396Z,102098.09
2023-01-23T20:09:22.633Z,102097.94
2023-01-23T20:11:52.608Z,102107.44
2023-01-23T20:14:22.202Z,102115.25
2023-01-23T20:16:52.394Z,102115.88
2023-01-23T20:19:21.226Z,102106.53
2023-01-23T20:21:50.287Z,102115.13
2023-01-23T20:24:19.272Z,102131.56
2023-01-23T20:26:47.698Z,102124.78
2023-01-23T20:29:16.248Z,102122.03
2023-01-23T20:31:44.782Z,102123.88
2023-01-23T20:34:14.715Z,102122.97
2023-01-23T20:36:43.197Z,102124.63
2023-01-23T20:39:13.210Z,102129.91
2023-01-23T20:41:42.082Z,102119.50
2023-01-23T20:44:10.660Z,102128.25
2023-01-23T20:46:39.283Z,102131.03
2023-01-23T20:49:07.674Z,102124.25
2023-01-23T20:51:38.085Z,102119.13
2023-01-23T20:54:07.498Z,102116.56
2023-01-23T20:56:36.434Z,102119.84
2023-01-23T20:59:19.297Z,102118.38
2023-01-23T21:02:06.146Z,102119.84
2023-01-23T21:04:37.241Z,102113.63
2023-01-23T21:07:07.212Z,102114.53
2023-01-23T21:09:36.049Z,102110.31
2023-01-23T21:12:05.082Z,102106.84
2023-01-23T21:14:34.703Z,102113.63
2023-01-23T21:17:05.257Z,102110.13
2023-01-23T21:19:34.469Z,102111.25
2023-01-23T21:22:03.077Z,102099.13
2023-01-23T21:24:34.533Z,102095.66
2023-01-23T21:27:04.586Z,102102.44
2023-01-23T21:29:34.503Z,102103.06
2023-01-23T21:32:03.313Z,102106.19
2023-01-23T21:34:32.211Z,102109.50
2023-01-23T21:37:00.938Z,102106.81
2023-01-23T21:39:29.558Z,102110.13
2023-01-23T21:41:59.914Z,102110.88
2023-01-23T21:44:28.257Z,102104.66
2023-01-23T21:46:56.678Z,102110.56
2023-01-23T21:49:25.219Z,102118.09
2023-01-23T21:51:53.592Z,102115.69
2023-01-23T21:54:22.365Z,102113.69
2023-01-23T21:56:50.848Z,102107.22
2023-01-23T21:59:20.638Z,102114.16
2023-01-23T22:01:48.104Z,102111.03
2023-01-23T22:04:19.530Z,102102.59
2023-01-23T22:06:48.079Z,102105.28
2023-01-23T22:09:18.943Z,102108.94
2023-01-23T22:11:51.473Z,102107.13
2023-01-23T22:14:21.627Z,102109.69
2023-01-23T22:16:50.867Z,102107.13
2023-01-23T22:19:25.306Z,102103.81
2023-01-23T22:21:55.066Z,102104.88
2023-01-23T22:24:23.893Z,102098.69
2023-01-23T22:26:52.353Z,102096.84
2023-01-23T22:29:23.031Z,102095.38
2023-01-23T22:31:52.375Z,102097.19
2023-01-23T22:34:21.004Z,102098.22
2023-01-23T22:36:49.574Z,102097.50
2023-01-23T22:39:19.770Z,102100.78
2023-01-23T22:41:50.442Z,102104.28
2023-01-23T22:44:19.120Z,102102.31
2023-01-23T22:46:51.949Z,102102.44
2023-01-23T22:49:20.558Z,102097.19
2023-01-23T22:51:49.056Z,102095.66
2023-01-23T22:54:17.511Z,102098.97
2023-01-23T22:56:46.190Z,102104.09
2023-01-23T22:59:14.520Z,102091.28
2023-01-23T23:01:42.969Z,102104.88
2023-01-23T23:04:12.769Z,102103.06
2023-01-23T23:06:44.094Z,102099.75
2023-01-23T23:09:12.779Z,102102.31
2023-01-23T23:11:41.835Z,102103.97
2023-01-23T23:14:11.639Z,102105.00
2023-01-23T23:16:41.004Z,102104.09
2023-01-23T23:19:12.132Z,102120.41
2023-01-23T23:21:40.656Z,102108.50
2023-01-23T23:24:14.411Z,102100.78
2023-01-23T23:26:43.133Z,102109.84
2023-01-23T23:29:13.327Z,102103.81
2023-01-23T23:31:42.451Z,102099.25
2023-01-23T23:34:12.777Z,102105.28
2023-01-23T23:36:41.167Z,102104.38
2023-01-23T23:39:09.692Z,102105.28
2023-01-23T23:41:38.534Z,102101.69
2023-01-23T23:44:07.570Z,102111.94
2023-01-23T23:46:36.101Z,102105.75
2023-01-23T23:49:04.951Z,102101.34
2023-01-23T23:51:34.947Z,102105.00
2023-01-23T23:54:03.522Z,102105.16
2023-01-23T23:56:32.249Z,102099.88
2023-01-23T23:59:01.049Z,102112.06
